sensor_id;sensor_type;location;lat;lon;timestamp;P1;durP1;ratioP1;P2;durP2;ratioP2
19733;SDS011;10018;51.230;7.860;2022-12-07T00:01:42;32.67;;;19.50;;
19733;SDS011;10018;51.230;7.860;2022-12-07T00:04:10;32.80;;;18.00;;
19733;SDS011;10018;51.230;7.860;2022-12-07T00:06:38;31.63;;;17.60;;
19733;SDS011;10018;51.230;7.860;2022-12-07T00:09:06;34.80;;;18.70;;
19733;SDS011;10018;51.230;7.860;2022-12-07T00:11:34;34.43;;;19.30;;
19733;SDS011;10018;51.230;7.860;2022-12-07T00:14:01;35.67;;;19.00;;
19733;SDS011;10018;51.230;7.860;2022-12-07T00:16:29;34.80;;;19.27;;
19733;SDS011;10018;51.230;7.860;2022-12-07T00:18:56;37.40;;;19.67;;
19733;SDS011;10018;51.230;7.860;2022-12-07T00:21:23;35.90;;;19.97;;
19733;SDS011;10018;51.230;7.860;2022-12-07T00:23:52;34.73;;;20.50;;
19733;SDS011;10018;51.230;7.860;2022-12-07T00:26:19;35.70;;;20.00;;
19733;SDS011;10018;51.230;7.860;2022-12-07T00:28:47;36.40;;;20.50;;
19733;SDS011;10018;51.230;7.860;2022-12-07T00:31:14;34.27;;;19.23;;
19733;SDS011;10018;51.230;7.860;2022-12-07T00:33:40;40.23;;;21.43;;
19733;SDS011;10018;51.230;7.860;2022-12-07T00:36:07;36.43;;;20.20;;
19733;SDS011;10018;51.230;7.860;2022-12-07T00:38:36;40.60;;;21.40;;
19733;SDS011;10018;51.230;7.860;2022-12-07T00:41:03;36.57;;;19.60;;
19733;SDS011;10018;51.230;7.860;2022-12-07T00:43:30;34.40;;;19.87;;
19733;SDS011;10018;51.230;7.860;2022-12-07T00:45:56;32.70;;;18.63;;
19733;SDS011;10018;51.230;7.860;2022-12-07T00:48:22;34.27;;;19.03;;
19733;SDS011;10018;51.230;7.860;2022-12-07T00:50:48;35.30;;;19.00;;
19733;SDS011;10018;51.230;7.860;2022-12-07T00:53:13;34.30;;;18.63;;
19733;SDS011;10018;51.230;7.860;2022-12-07T00:55:40;34.77;;;19.60;;
19733;SDS011;10018;51.230;7.860;2022-12-07T00:58:06;34.27;;;19.07;;
19733;SDS011;10018;51.230;7.860;2022-12-07T01:00:32;34.27;;;19.57;;
19733;SDS011;10018;51.230;7.860;2022-12-07T01:02:58;35.63;;;20.30;;
19733;SDS011;10018;51.230;7.860;2022-12-07T01:05:24;33.37;;;19.03;;
19733;SDS011;10018;51.230;7.860;2022-12-07T01:07:49;35.27;;;19.83;;
19733;SDS011;10018;51.230;7.860;2022-12-07T01:10:15;37.37;;;18.47;;
19733;SDS011;10018;51.230;7.860;2022-12-07T01:12:40;35.37;;;18.97;;
19733;SDS011;10018;51.230;7.860;2022-12-07T01:15:06;32.83;;;18.97;;
19733;SDS011;10018;51.230;7.860;2022-12-07T01:17:32;35.30;;;19.17;;
19733;SDS011;10018;51.230;7.860;2022-12-07T01:19:58;33.10;;;18.60;;
19733;SDS011;10018;51.230;7.860;2022-12-07T01:22:24;32.47;;;18.70;;
19733;SDS011;10018;51.230;7.860;2022-12-07T01:24:49;34.00;;;19.30;;
19733;SDS011;10018;51.230;7.860;2022-12-07T01:27:15;37.27;;;19.57;;
19733;SDS011;10018;51.230;7.860;2022-12-07T01:29:40;34.90;;;19.07;;
19733;SDS011;10018;51.230;7.860;2022-12-07T01:32:06;34.87;;;19.87;;
19733;SDS011;10018;51.230;7.860;2022-12-07T01:34:31;34.90;;;19.07;;
19733;SDS011;10018;51.230;7.860;2022-12-07T01:36:57;41.27;;;19.77;;
19733;SDS011;10018;51.230;7.860;2022-12-07T01:39:23;37.20;;;20.27;;
19733;SDS011;10018;51.230;7.860;2022-12-07T01:41:48;36.10;;;19.70;;
19733;SDS011;10018;51.230;7.860;2022-12-07T01:44:24;37.13;;;19.97;;
19733;SDS011;10018;51.230;7.860;2022-12-07T01:49:26;36.67;;;19.60;;
19733;SDS011;10018;51.230;7.860;2022-12-07T01:51:58;34.43;;;19.23;;
19733;SDS011;10018;51.230;7.860;2022-12-07T01:54:32;35.37;;;19.27;;
19733;SDS011;10018;51.230;7.860;2022-12-07T01:56:59;37.73;;;20.53;;
19733;SDS011;10018;51.230;7.860;2022-12-07T01:59:25;40.37;;;21.00;;
19733;SDS011;10018;51.230;7.860;2022-12-07T02:01:51;38.37;;;20.23;;
19733;SDS011;10018;51.230;7.860;2022-12-07T02:04:19;40.33;;;21.43;;
19733;SDS011;10018;51.230;7.860;2022-12-07T02:06:45;42.23;;;22.13;;
19733;SDS011;10018;51.230;7.860;2022-12-07T02:09:12;38.03;;;21.37;;
19733;SDS011;10018;51.230;7.860;2022-12-07T02:11:38;36.63;;;20.43;;
19733;SDS011;10018;51.230;7.860;2022-12-07T02:14:05;40.23;;;21.67;;
19733;SDS011;10018;51.230;7.860;2022-12-07T02:16:34;38.73;;;21.50;;
19733;SDS011;10018;51.230;7.860;2022-12-07T02:22:15;43.10;;;22.50;;
19733;SDS011;10018;51.230;7.860;2022-12-07T02:25:09;37.60;;;21.10;;
19733;SDS011;10018;51.230;7.860;2022-12-07T02:27:47;39.27;;;20.57;;
19733;SDS011;10018;51.230;7.860;2022-12-07T02:30:20;38.43;;;21.07;;
19733;SDS011;10018;51.230;7.860;2022-12-07T02:32:56;43.03;;;22.53;;
19733;SDS011;10018;51.230;7.860;2022-12-07T02:35:33;41.20;;;21.83;;
19733;SDS011;10018;51.230;7.860;2022-12-07T02:38:24;40.03;;;21.70;;
19733;SDS011;10018;51.230;7.860;2022-12-07T02:41:08;39.00;;;20.80;;
19733;SDS011;10018;51.230;7.860;2022-12-07T02:43:38;34.00;;;17.47;;
19733;SDS011;10018;51.230;7.860;2022-12-07T02:46:22;33.03;;;16.93;;
19733;SDS011;10018;51.230;7.860;2022-12-07T02:48:51;33.63;;;18.80;;
19733;SDS011;10018;51.230;7.860;2022-12-07T02:51:19;35.23;;;18.90;;
19733;SDS011;10018;51.230;7.860;2022-12-07T02:53:45;37.87;;;19.80;;
19733;SDS011;10018;51.230;7.860;2022-12-07T03:02:02;37.87;;;19.80;;
19733;SDS011;10018;51.230;7.860;2022-12-07T03:04:52;37.40;;;19.63;;
19733;SDS011;10018;51.230;7.860;2022-12-07T03:10:08;39.13;;;21.70;;
19733;SDS011;10018;51.230;7.860;2022-12-07T03:12:55;38.37;;;20.00;;
19733;SDS011;10018;51.230;7.860;2022-12-07T03:18:33;41.30;;;21.07;;
19733;SDS011;10018;51.230;7.860;2022-12-07T03:21:04;40.07;;;21.67;;
19733;SDS011;10018;51.230;7.860;2022-12-07T03:23:33;38.47;;;20.93;;
19733;SDS011;10018;51.230;7.860;2022-12-07T03:26:01;40.77;;;21.60;;
19733;SDS011;10018;51.230;7.860;2022-12-07T03:28:31;38.80;;;21.30;;
19733;SDS011;10018;51.230;7.860;2022-12-07T03:31:43;41.90;;;21.50;;
19733;SDS011;10018;51.230;7.860;2022-12-07T03:36:37;38.63;;;21.17;;
19733;SDS011;10018;51.230;7.860;2022-12-07T03:39:22;35.30;;;18.97;;
19733;SDS011;10018;51.230;7.860;2022-12-07T03:41:52;37.50;;;20.03;;
19733;SDS011;10018;51.230;7.860;2022-12-07T03:44:19;32.73;;;19.10;;
19733;SDS011;10018;51.230;7.860;2022-12-07T03:49:25;39.57;;;20.60;;
19733;SDS011;10018;51.230;7.860;2022-12-07T03:52:12;34.77;;;17.73;;
19733;SDS011;10018;51.230;7.860;2022-12-07T03:54:52;34.70;;;19.47;;
19733;SDS011;10018;51.230;7.860;2022-12-07T03:57:25;37.63;;;19.13;;
19733;SDS011;10018;51.230;7.860;2022-12-07T03:59:54;37.00;;;19.43;;
19733;SDS011;10018;51.230;7.860;2022-12-07T04:02:21;38.07;;;18.63;;
19733;SDS011;10018;51.230;7.860;2022-12-07T04:04:48;36.00;;;18.67;;
19733;SDS011;10018;51.230;7.860;2022-12-07T04:07:14;31.90;;;18.33;;
19733;SDS011;10018;51.230;7.860;2022-12-07T04:09:39;34.13;;;17.33;;
19733;SDS011;10018;51.230;7.860;2022-12-07T04:12:05;36.60;;;18.17;;
19733;SDS011;10018;51.230;7.860;2022-12-07T04:14:30;36.67;;;19.60;;
19733;SDS011;10018;51.230;7.860;2022-12-07T04:16:56;33.73;;;17.73;;
19733;SDS011;10018;51.230;7.860;2022-12-07T04:19:27;32.30;;;17.17;;
19733;SDS011;10018;51.230;7.860;2022-12-07T04:21:55;34.67;;;17.73;;
19733;SDS011;10018;51.230;7.860;2022-12-07T04:24:22;32.67;;;16.93;;
19733;SDS011;10018;51.230;7.860;2022-12-07T04:26:48;34.90;;;16.97;;
19733;SDS011;10018;51.230;7.860;2022-12-07T04:29:14;31.03;;;16.77;;
19733;SDS011;10018;51.230;7.860;2022-12-07T04:31:40;30.40;;;17.23;;
19733;SDS011;10018;51.230;7.860;2022-12-07T04:34:06;33.87;;;17.93;;
19733;SDS011;10018;51.230;7.860;2022-12-07T04:36:32;36.23;;;18.03;;
19733;SDS011;10018;51.230;7.860;2022-12-07T04:38:58;36.63;;;19.10;;
19733;SDS011;10018;51.230;7.860;2022-12-07T04:41:25;37.30;;;18.20;;
19733;SDS011;10018;51.230;7.860;2022-12-07T04:43:57;36.80;;;17.87;;
19733;SDS011;10018;51.230;7.860;2022-12-07T04:46:25;36.00;;;18.57;;
19733;SDS011;10018;51.230;7.860;2022-12-07T04:48:52;39.43;;;20.10;;
19733;SDS011;10018;51.230;7.860;2022-12-07T04:51:20;57.07;;;26.47;;
19733;SDS011;10018;51.230;7.860;2022-12-07T04:53:48;51.40;;;23.50;;
19733;SDS011;10018;51.230;7.860;2022-12-07T04:56:14;38.47;;;19.40;;
19733;SDS011;10018;51.230;7.860;2022-12-07T04:58:41;36.60;;;18.40;;
19733;SDS011;10018;51.230;7.860;2022-12-07T05:01:07;33.73;;;18.10;;
19733;SDS011;10018;51.230;7.860;2022-12-07T05:03:33;38.73;;;18.90;;
19733;SDS011;10018;51.230;7.860;2022-12-07T05:05:59;37.80;;;17.30;;
19733;SDS011;10018;51.230;7.860;2022-12-07T05:08:24;33.90;;;17.23;;
19733;SDS011;10018;51.230;7.860;2022-12-07T05:10:50;35.73;;;18.80;;
19733;SDS011;10018;51.230;7.860;2022-12-07T05:13:15;33.83;;;17.73;;
19733;SDS011;10018;51.230;7.860;2022-12-07T05:15:41;35.07;;;17.20;;
19733;SDS011;10018;51.230;7.860;2022-12-07T05:18:08;37.17;;;17.30;;
19733;SDS011;10018;51.230;7.860;2022-12-07T05:20:36;30.37;;;15.93;;
19733;SDS011;10018;51.230;7.860;2022-12-07T05:23:02;34.90;;;17.40;;
19733;SDS011;10018;51.230;7.860;2022-12-07T05:25:27;32.30;;;17.50;;
19733;SDS011;10018;51.230;7.860;2022-12-07T05:27:54;32.33;;;16.20;;
19733;SDS011;10018;51.230;7.860;2022-12-07T05:30:20;34.97;;;15.53;;
19733;SDS011;10018;51.230;7.860;2022-12-07T05:32:46;30.73;;;15.83;;
19733;SDS011;10018;51.230;7.860;2022-12-07T05:35:11;33.50;;;16.53;;
19733;SDS011;10018;51.230;7.860;2022-12-07T05:37:37;30.93;;;16.23;;
19733;SDS011;10018;51.230;7.860;2022-12-07T05:40:03;37.60;;;16.73;;
19733;SDS011;10018;51.230;7.860;2022-12-07T05:42:29;32.57;;;16.07;;
19733;SDS011;10018;51.230;7.860;2022-12-07T05:44:55;33.70;;;16.53;;
19733;SDS011;10018;51.230;7.860;2022-12-07T05:47:20;32.40;;;16.13;;
19733;SDS011;10018;51.230;7.860;2022-12-07T05:49:46;32.27;;;15.83;;
19733;SDS011;10018;51.230;7.860;2022-12-07T05:52:12;29.87;;;14.97;;
19733;SDS011;10018;51.230;7.860;2022-12-07T05:54:37;31.60;;;16.17;;
19733;SDS011;10018;51.230;7.860;2022-12-07T05:57:03;33.17;;;16.40;;
19733;SDS011;10018;51.230;7.860;2022-12-07T05:59:28;34.60;;;17.07;;
19733;SDS011;10018;51.230;7.860;2022-12-07T06:01:58;31.53;;;17.07;;
19733;SDS011;10018;51.230;7.860;2022-12-07T06:04:25;33.07;;;16.77;;
19733;SDS011;10018;51.230;7.860;2022-12-07T06:06:52;36.87;;;16.57;;
19733;SDS011;10018;51.230;7.860;2022-12-07T06:09:18;33.23;;;16.77;;
19733;SDS011;10018;51.230;7.860;2022-12-07T06:11:45;30.87;;;16.30;;
19733;SDS011;10018;51.230;7.860;2022-12-07T06:14:30;31.73;;;16.70;;
19733;SDS011;10018;51.230;7.860;2022-12-07T06:16:55;32.10;;;16.27;;
19733;SDS011;10018;51.230;7.860;2022-12-07T06:19:21;35.80;;;16.40;;
19733;SDS011;10018;51.230;7.860;2022-12-07T06:21:47;33.63;;;15.90;;
19733;SDS011;10018;51.230;7.860;2022-12-07T06:24:13;29.33;;;15.87;;
19733;SDS011;10018;51.230;7.860;2022-12-07T06:26:39;33.20;;;16.47;;
19733;SDS011;10018;51.230;7.860;2022-12-07T06:29:05;34.20;;;16.97;;
19733;SDS011;10018;51.230;7.860;2022-12-07T06:31:31;32.27;;;16.63;;
19733;SDS011;10018;51.230;7.860;2022-12-07T06:33:57;33.33;;;16.43;;
19733;SDS011;10018;51.230;7.860;2022-12-07T06:36:26;31.80;;;16.57;;
19733;SDS011;10018;51.230;7.860;2022-12-07T06:38:52;30.03;;;16.87;;
19733;SDS011;10018;51.230;7.860;2022-12-07T06:41:18;34.70;;;16.50;;
19733;SDS011;10018;51.230;7.860;2022-12-07T06:43:44;31.63;;;17.10;;
19733;SDS011;10018;51.230;7.860;2022-12-07T06:46:09;33.97;;;16.53;;
19733;SDS011;10018;51.230;7.860;2022-12-07T06:48:34;32.60;;;17.40;;
19733;SDS011;10018;51.230;7.860;2022-12-07T06:51:00;30.70;;;16.50;;
19733;SDS011;10018;51.230;7.860;2022-12-07T06:53:26;35.53;;;16.83;;
19733;SDS011;10018;51.230;7.860;2022-12-07T06:55:51;35.83;;;19.07;;
19733;SDS011;10018;51.230;7.860;2022-12-07T06:58:17;37.20;;;17.73;;
19733;SDS011;10018;51.230;7.860;2022-12-07T07:00:43;34.00;;;18.47;;
19733;SDS011;10018;51.230;7.860;2022-12-07T07:03:09;34.53;;;18.20;;
19733;SDS011;10018;51.230;7.860;2022-12-07T07:05:35;42.23;;;23.07;;
19733;SDS011;10018;51.230;7.860;2022-12-07T07:08:00;38.77;;;19.77;;
19733;SDS011;10018;51.230;7.860;2022-12-07T07:10:26;36.80;;;18.67;;
19733;SDS011;10018;51.230;7.860;2022-12-07T07:12:51;31.13;;;14.73;;
19733;SDS011;10018;51.230;7.860;2022-12-07T07:15:17;28.83;;;15.33;;
19733;SDS011;10018;51.230;7.860;2022-12-07T07:17:42;31.33;;;15.67;;
19733;SDS011;10018;51.230;7.860;2022-12-07T07:20:08;29.10;;;14.57;;
19733;SDS011;10018;51.230;7.860;2022-12-07T07:22:34;29.70;;;15.40;;
19733;SDS011;10018;51.230;7.860;2022-12-07T07:25:00;30.13;;;15.70;;
19733;SDS011;10018;51.230;7.860;2022-12-07T07:27:25;33.07;;;15.57;;
19733;SDS011;10018;51.230;7.860;2022-12-07T07:29:51;40.77;;;16.60;;
19733;SDS011;10018;51.230;7.860;2022-12-07T07:32:16;31.13;;;15.03;;
19733;SDS011;10018;51.230;7.860;2022-12-07T07:34:42;29.00;;;14.40;;
19733;SDS011;10018;51.230;7.860;2022-12-07T07:37:07;30.83;;;13.73;;
19733;SDS011;10018;51.230;7.860;2022-12-07T07:39:33;29.70;;;13.27;;
19733;SDS011;10018;51.230;7.860;2022-12-07T07:41:58;28.00;;;13.50;;
19733;SDS011;10018;51.230;7.860;2022-12-07T07:44:24;29.70;;;13.67;;
19733;SDS011;10018;51.230;7.860;2022-12-07T07:46:49;28.10;;;13.47;;
19733;SDS011;10018;51.230;7.860;2022-12-07T07:49:15;30.37;;;12.30;;
19733;SDS011;10018;51.230;7.860;2022-12-07T07:51:40;30.80;;;13.67;;
19733;SDS011;10018;51.230;7.860;2022-12-07T07:54:06;25.57;;;13.00;;
19733;SDS011;10018;51.230;7.860;2022-12-07T07:56:31;27.07;;;12.70;;
19733;SDS011;10018;51.230;7.860;2022-12-07T07:58:56;23.40;;;11.97;;
19733;SDS011;10018;51.230;7.860;2022-12-07T08:01:22;25.57;;;13.43;;
19733;SDS011;10018;51.230;7.860;2022-12-07T08:03:48;26.57;;;13.70;;
19733;SDS011;10018;51.230;7.860;2022-12-07T08:06:13;29.33;;;13.67;;
19733;SDS011;10018;51.230;7.860;2022-12-07T08:08:40;28.43;;;15.37;;
19733;SDS011;10018;51.230;7.860;2022-12-07T08:11:06;43.00;;;22.93;;
19733;SDS011;10018;51.230;7.860;2022-12-07T08:13:33;31.57;;;18.50;;
19733;SDS011;10018;51.230;7.860;2022-12-07T08:15:58;31.70;;;16.93;;
19733;SDS011;10018;51.230;7.860;2022-12-07T08:18:29;32.40;;;15.03;;
19733;SDS011;10018;51.230;7.860;2022-12-07T08:21:01;34.23;;;16.70;;
19733;SDS011;10018;51.230;7.860;2022-12-07T08:23:27;30.27;;;14.90;;
19733;SDS011;10018;51.230;7.860;2022-12-07T08:25:53;30.77;;;14.33;;
19733;SDS011;10018;51.230;7.860;2022-12-07T08:28:18;33.97;;;17.63;;
19733;SDS011;10018;51.230;7.860;2022-12-07T08:30:44;33.53;;;15.97;;
19733;SDS011;10018;51.230;7.860;2022-12-07T08:33:10;33.43;;;17.93;;
19733;SDS011;10018;51.230;7.860;2022-12-07T08:35:35;30.37;;;14.30;;
19733;SDS011;10018;51.230;7.860;2022-12-07T08:38:01;28.37;;;13.43;;
19733;SDS011;10018;51.230;7.860;2022-12-07T08:40:28;31.57;;;14.17;;
19733;SDS011;10018;51.230;7.860;2022-12-07T08:42:54;26.40;;;12.53;;
19733;SDS011;10018;51.230;7.860;2022-12-07T08:45:20;23.77;;;12.37;;
19733;SDS011;10018;51.230;7.860;2022-12-07T08:47:50;27.93;;;12.70;;
19733;SDS011;10018;51.230;7.860;2022-12-07T08:50:22;32.03;;;13.63;;
19733;SDS011;10018;51.230;7.860;2022-12-07T08:52:49;22.77;;;12.03;;
19733;SDS011;10018;51.230;7.860;2022-12-07T08:55:18;25.60;;;12.83;;
19733;SDS011;10018;51.230;7.860;2022-12-07T08:57:44;22.87;;;12.20;;
19733;SDS011;10018;51.230;7.860;2022-12-07T09:00:10;24.97;;;12.53;;
19733;SDS011;10018;51.230;7.860;2022-12-07T09:02:36;28.57;;;12.17;;
19733;SDS011;10018;51.230;7.860;2022-12-07T09:05:02;25.83;;;13.33;;
19733;SDS011;10018;51.230;7.860;2022-12-07T09:07:28;28.10;;;12.77;;
19733;SDS011;10018;51.230;7.860;2022-12-07T09:09:56;29.33;;;12.07;;
19733;SDS011;10018;51.230;7.860;2022-12-07T09:12:22;22.07;;;11.27;;
19733;SDS011;10018;51.230;7.860;2022-12-07T09:14:48;25.90;;;12.93;;
19733;SDS011;10018;51.230;7.860;2022-12-07T09:17:13;28.30;;;13.33;;
19733;SDS011;10018;51.230;7.860;2022-12-07T09:19:38;25.73;;;12.27;;
19733;SDS011;10018;51.230;7.860;2022-12-07T09:22:05;27.17;;;13.13;;
19733;SDS011;10018;51.230;7.860;2022-12-07T09:24:31;27.30;;;12.40;;
19733;SDS011;10018;51.230;7.860;2022-12-07T09:26:57;22.57;;;12.93;;
19733;SDS011;10018;51.230;7.860;2022-12-07T09:29:23;24.13;;;12.17;;
19733;SDS011;10018;51.230;7.860;2022-12-07T09:31:50;24.20;;;11.63;;
19733;SDS011;10018;51.230;7.860;2022-12-07T09:34:16;23.40;;;11.90;;
19733;SDS011;10018;51.230;7.860;2022-12-07T09:36:42;27.57;;;11.77;;
19733;SDS011;10018;51.230;7.860;2022-12-07T09:39:08;27.00;;;12.20;;
19733;SDS011;10018;51.230;7.860;2022-12-07T09:41:36;22.07;;;11.70;;
19733;SDS011;10018;51.230;7.860;2022-12-07T09:44:05;20.93;;;11.20;;
19733;SDS011;10018;51.230;7.860;2022-12-07T09:46:35;25.13;;;12.30;;
19733;SDS011;10018;51.230;7.860;2022-12-07T09:49:04;23.27;;;11.43;;
19733;SDS011;10018;51.230;7.860;2022-12-07T09:51:30;23.13;;;10.97;;
19733;SDS011;10018;51.230;7.860;2022-12-07T09:53:57;23.13;;;12.40;;
19733;SDS011;10018;51.230;7.860;2022-12-07T09:56:24;22.20;;;11.23;;
19733;SDS011;10018;51.230;7.860;2022-12-07T09:58:58;29.43;;;11.50;;
19733;SDS011;10018;51.230;7.860;2022-12-07T10:01:28;26.60;;;11.43;;
19733;SDS011;10018;51.230;7.860;2022-12-07T10:04:17;21.17;;;11.50;;
19733;SDS011;10018;51.230;7.860;2022-12-07T10:06:46;22.83;;;11.57;;
19733;SDS011;10018;51.230;7.860;2022-12-07T10:09:13;23.37;;;10.47;;
19733;SDS011;10018;51.230;7.860;2022-12-07T10:14:31;23.10;;;11.13;;
19733;SDS011;10018;51.230;7.860;2022-12-07T10:16:58;18.90;;;10.10;;
19733;SDS011;10018;51.230;7.860;2022-12-07T10:19:31;22.87;;;11.10;;
19733;SDS011;10018;51.230;7.860;2022-12-07T10:24:38;24.70;;;11.30;;
19733;SDS011;10018;51.230;7.860;2022-12-07T10:27:04;23.03;;;11.90;;
19733;SDS011;10018;51.230;7.860;2022-12-07T10:29:34;26.27;;;13.60;;
19733;SDS011;10018;51.230;7.860;2022-12-07T10:32:03;35.60;;;14.07;;
19733;SDS011;10018;51.230;7.860;2022-12-07T10:34:49;34.47;;;18.30;;
19733;SDS011;10018;51.230;7.860;2022-12-07T10:39:46;24.83;;;14.23;;
19733;SDS011;10018;51.230;7.860;2022-12-07T10:42:28;27.10;;;14.30;;
19733;SDS011;10018;51.230;7.860;2022-12-07T10:45:15;28.67;;;15.80;;
19733;SDS011;10018;51.230;7.860;2022-12-07T10:53:28;25.23;;;12.73;;
19733;SDS011;10018;51.230;7.860;2022-12-07T10:56:20;23.50;;;12.53;;
19733;SDS011;10018;51.230;7.860;2022-12-07T10:59:16;24.33;;;13.23;;
19733;SDS011;10018;51.230;7.860;2022-12-07T11:10:46;21.27;;;12.23;;
19733;SDS011;10018;51.230;7.860;2022-12-07T11:13:27;22.53;;;11.73;;
19733;SDS011;10018;51.230;7.860;2022-12-07T11:18:39;26.87;;;12.73;;
19733;SDS011;10018;51.230;7.860;2022-12-07T11:24:07;23.70;;;12.13;;
19733;SDS011;10018;51.230;7.860;2022-12-07T11:29:25;25.73;;;11.43;;
19733;SDS011;10018;51.230;7.860;2022-12-07T11:35:04;20.73;;;11.57;;
19733;SDS011;10018;51.230;7.860;2022-12-07T11:37:47;27.27;;;12.13;;
19733;SDS011;10018;51.230;7.860;2022-12-07T11:40:50;26.97;;;12.23;;
19733;SDS011;10018;51.230;7.860;2022-12-07T11:43:24;20.77;;;9.63;;
19733;SDS011;10018;51.230;7.860;2022-12-07T11:45:56;22.17;;;10.73;;
19733;SDS011;10018;51.230;7.860;2022-12-07T11:48:35;19.27;;;9.60;;
19733;SDS011;10018;51.230;7.860;2022-12-07T11:51:06;28.23;;;13.80;;
19733;SDS011;10018;51.230;7.860;2022-12-07T11:56:23;18.50;;;9.20;;
19733;SDS011;10018;51.230;7.860;2022-12-07T12:06:40;19.23;;;8.60;;
19733;SDS011;10018;51.230;7.860;2022-12-07T12:09:14;23.77;;;10.00;;
19733;SDS011;10018;51.230;7.860;2022-12-07T12:14:40;20.00;;;8.43;;
19733;SDS011;10018;51.230;7.860;2022-12-07T12:20:15;19.33;;;8.60;;
19733;SDS011;10018;51.230;7.860;2022-12-07T12:22:47;15.90;;;8.10;;
19733;SDS011;10018;51.230;7.860;2022-12-07T12:25:36;19.90;;;8.33;;
19733;SDS011;10018;51.230;7.860;2022-12-07T12:28:04;18.87;;;7.70;;
19733;SDS011;10018;51.230;7.860;2022-12-07T12:30:31;18.20;;;8.60;;
19733;SDS011;10018;51.230;7.860;2022-12-07T12:33:15;16.63;;;8.43;;
19733;SDS011;10018;51.230;7.860;2022-12-07T12:44:02;18.33;;;9.20;;
19733;SDS011;10018;51.230;7.860;2022-12-07T12:46:49;20.67;;;9.87;;
19733;SDS011;10018;51.230;7.860;2022-12-07T12:54:39;18.27;;;9.97;;
19733;SDS011;10018;51.230;7.860;2022-12-07T12:57:26;21.33;;;11.07;;
19733;SDS011;10018;51.230;7.860;2022-12-07T13:04:58;17.00;;;9.33;;
19733;SDS011;10018;51.230;7.860;2022-12-07T13:13:00;20.00;;;10.00;;
19733;SDS011;10018;51.230;7.860;2022-12-07T13:15:35;18.83;;;9.70;;
19733;SDS011;10018;51.230;7.860;2022-12-07T13:21:39;17.13;;;9.43;;
19733;SDS011;10018;51.230;7.860;2022-12-07T13:23:59;20.20;;;10.53;;
19733;SDS011;10018;51.230;7.860;2022-12-07T13:29:15;24.97;;;10.80;;
19733;SDS011;10018;51.230;7.860;2022-12-07T13:31:55;22.67;;;13.00;;
19733;SDS011;10018;51.230;7.860;2022-12-07T13:34:32;18.20;;;10.97;;
19733;SDS011;10018;51.230;7.860;2022-12-07T13:37:15;18.27;;;10.73;;
19733;SDS011;10018;51.230;7.860;2022-12-07T13:39:47;24.43;;;14.47;;
19733;SDS011;10018;51.230;7.860;2022-12-07T13:44:47;22.10;;;10.93;;
19733;SDS011;10018;51.230;7.860;2022-12-07T13:47:14;23.77;;;11.90;;
19733;SDS011;10018;51.230;7.860;2022-12-07T13:50:23;30.10;;;10.93;;
19733;SDS011;10018;51.230;7.860;2022-12-07T13:52:54;24.97;;;11.93;;
19733;SDS011;10018;51.230;7.860;2022-12-07T13:55:21;28.17;;;12.83;;
19733;SDS011;10018;51.230;7.860;2022-12-07T13:57:47;26.00;;;11.63;;
19733;SDS011;10018;51.230;7.860;2022-12-07T14:00:17;20.57;;;10.90;;
19733;SDS011;10018;51.230;7.860;2022-12-07T14:03:03;22.13;;;11.97;;
19733;SDS011;10018;51.230;7.860;2022-12-07T14:05:39;17.07;;;10.57;;
19733;SDS011;10018;51.230;7.860;2022-12-07T14:10:39;18.83;;;10.10;;
19733;SDS011;10018;51.230;7.860;2022-12-07T14:15:56;19.80;;;10.97;;
19733;SDS011;10018;51.230;7.860;2022-12-07T14:18:34;23.10;;;11.67;;
19733;SDS011;10018;51.230;7.860;2022-12-07T14:21:24;23.73;;;12.03;;
19733;SDS011;10018;51.230;7.860;2022-12-07T14:26:48;21.67;;;12.43;;
19733;SDS011;10018;51.230;7.860;2022-12-07T14:29:19;19.87;;;11.93;;
19733;SDS011;10018;51.230;7.860;2022-12-07T14:31:55;21.03;;;12.13;;
19733;SDS011;10018;51.230;7.860;2022-12-07T14:34:22;20.93;;;11.80;;
19733;SDS011;10018;51.230;7.860;2022-12-07T14:36:48;23.67;;;11.83;;
19733;SDS011;10018;51.230;7.860;2022-12-07T14:39:14;23.73;;;12.67;;
19733;SDS011;10018;51.230;7.860;2022-12-07T14:41:40;23.57;;;14.10;;
19733;SDS011;10018;51.230;7.860;2022-12-07T14:44:15;32.60;;;17.07;;
19733;SDS011;10018;51.230;7.860;2022-12-07T14:46:41;48.80;;;24.33;;
19733;SDS011;10018;51.230;7.860;2022-12-07T14:49:07;41.57;;;20.57;;
19733;SDS011;10018;51.230;7.860;2022-12-07T14:51:33;33.33;;;18.13;;
19733;SDS011;10018;51.230;7.860;2022-12-07T14:54:00;24.10;;;14.60;;
19733;SDS011;10018;51.230;7.860;2022-12-07T14:56:26;18.93;;;12.23;;
19733;SDS011;10018;51.230;7.860;2022-12-07T14:58:52;25.90;;;15.20;;
19733;SDS011;10018;51.230;7.860;2022-12-07T15:01:18;30.43;;;15.27;;
19733;SDS011;10018;51.230;7.860;2022-12-07T15:03:44;26.00;;;14.63;;
19733;SDS011;10018;51.230;7.860;2022-12-07T15:06:10;25.57;;;14.97;;
19733;SDS011;10018;51.230;7.860;2022-12-07T15:08:39;26.03;;;14.67;;
19733;SDS011;10018;51.230;7.860;2022-12-07T15:11:05;32.70;;;18.60;;
19733;SDS011;10018;51.230;7.860;2022-12-07T15:13:31;27.87;;;17.40;;
19733;SDS011;10018;51.230;7.860;2022-12-07T15:16:16;24.07;;;14.37;;
19733;SDS011;10018;51.230;7.860;2022-12-07T15:18:45;22.07;;;11.70;;
19733;SDS011;10018;51.230;7.860;2022-12-07T15:21:14;24.13;;;14.23;;
19733;SDS011;10018;51.230;7.860;2022-12-07T15:23:41;22.10;;;13.83;;
19733;SDS011;10018;51.230;7.860;2022-12-07T15:26:06;20.03;;;12.87;;
19733;SDS011;10018;51.230;7.860;2022-12-07T15:28:32;25.87;;;14.13;;
19733;SDS011;10018;51.230;7.860;2022-12-07T15:30:58;17.97;;;10.67;;
19733;SDS011;10018;51.230;7.860;2022-12-07T15:33:24;20.03;;;10.40;;
19733;SDS011;10018;51.230;7.860;2022-12-07T15:35:49;24.20;;;10.60;;
19733;SDS011;10018;51.230;7.860;2022-12-07T15:38:15;25.77;;;10.77;;
19733;SDS011;10018;51.230;7.860;2022-12-07T15:40:41;18.53;;;10.10;;
19733;SDS011;10018;51.230;7.860;2022-12-07T15:43:08;16.57;;;10.23;;
19733;SDS011;10018;51.230;7.860;2022-12-07T15:45:54;21.53;;;11.63;;
19733;SDS011;10018;51.230;7.860;2022-12-07T15:48:20;20.57;;;11.60;;
19733;SDS011;10018;51.230;7.860;2022-12-07T15:50:45;30.47;;;17.00;;
19733;SDS011;10018;51.230;7.860;2022-12-07T15:53:11;27.60;;;16.93;;
19733;SDS011;10018;51.230;7.860;2022-12-07T15:55:38;21.83;;;13.80;;
19733;SDS011;10018;51.230;7.860;2022-12-07T15:58:04;27.70;;;15.90;;
19733;SDS011;10018;51.230;7.860;2022-12-07T16:00:30;23.57;;;13.23;;
19733;SDS011;10018;51.230;7.860;2022-12-07T16:02:55;25.73;;;14.50;;
19733;SDS011;10018;51.230;7.860;2022-12-07T16:05:21;31.30;;;16.10;;
19733;SDS011;10018;51.230;7.860;2022-12-07T16:07:47;26.10;;;12.40;;
19733;SDS011;10018;51.230;7.860;2022-12-07T16:10:12;23.70;;;12.53;;
19733;SDS011;10018;51.230;7.860;2022-12-07T16:12:38;27.60;;;14.40;;
19733;SDS011;10018;51.230;7.860;2022-12-07T16:15:03;27.93;;;14.53;;
19733;SDS011;10018;51.230;7.860;2022-12-07T16:17:30;31.90;;;16.03;;
19733;SDS011;10018;51.230;7.860;2022-12-07T16:19:55;36.57;;;16.20;;
19733;SDS011;10018;51.230;7.860;2022-12-07T16:22:22;33.30;;;16.50;;
19733;SDS011;10018;51.230;7.860;2022-12-07T16:24:48;33.57;;;16.43;;
19733;SDS011;10018;51.230;7.860;2022-12-07T16:27:13;32.47;;;17.40;;